createdAt,value
2017-06-26T10:48:46.581Z,33.4
2017-06-26T10:49:47.986Z,33.6
2017-06-26T10:51:09.484Z,33.8
2017-06-26T10:52:10.886Z,34.1
2017-06-26T10:53:32.386Z,34.6
2017-06-26T10:54:33.789Z,34.5
2017-06-26T10:55:55.658Z,34.1
2017-06-26T10:56:57.067Z,33.8
2017-06-26T10:58:18.604Z,34.0
2017-06-26T10:59:21.172Z,34.2
2017-06-26T11:00:43.975Z,34.9
2017-06-26T11:01:45.386Z,35.5
2017-06-26T11:03:07.224Z,36.1
2017-06-26T11:04:08.637Z,36.3
2017-06-26T11:05:30.139Z,36.2
2017-06-26T11:10:50.770Z,34.2
2017-06-26T11:11:52.977Z,34.2
2017-06-26T11:13:14.633Z,34.6
2017-06-26T11:14:16.053Z,35.0
2017-06-26T11:15:38.712Z,35.7
2017-06-26T11:16:41.065Z,36.1
2017-06-26T11:18:02.877Z,36.7
2017-06-26T12:14:02.194Z,39.5
2017-06-26T12:15:04.159Z,39.0
2017-06-26T12:16:25.841Z,38.9
2017-06-26T12:23:23.367Z,31.0
2017-06-26T12:24:24.767Z,30.2
2017-06-26T12:25:46.486Z,29.7
2017-06-26T12:26:48.540Z,29.6
2017-06-26T12:28:10.263Z,29.4
2017-06-26T12:29:11.663Z,29.3
2017-06-26T12:30:34.580Z,29.2
2017-06-26T12:31:35.986Z,29.1
2017-06-26T12:32:58.720Z,29.1
2017-06-26T12:34:00.911Z,29.0
2017-06-26T12:35:23.760Z,28.9
2017-06-26T12:36:26.111Z,28.8
2017-06-26T12:37:48.180Z,28.7
2017-06-26T12:38:49.702Z,28.6
2017-06-26T12:40:13.371Z,28.5
2017-06-26T12:41:14.765Z,28.4
2017-06-26T12:42:36.266Z,28.3
2017-06-26T12:43:37.666Z,28.2
2017-06-26T12:45:00.831Z,28.1
2017-06-26T12:46:02.234Z,27.9
2017-06-26T12:47:23.808Z,27.9
2017-06-26T12:48:25.900Z,27.8
2017-06-26T12:49:47.582Z,27.7
2017-06-26T12:56:30.776Z,27.2
2017-06-26T12:57:32.171Z,27.1
2017-06-26T13:03:35.182Z,26.1
2017-06-26T13:04:36.578Z,25.8
2017-06-26T13:05:58.355Z,25.7
2017-06-26T13:06:59.747Z,25.5
2017-06-26T13:08:21.502Z,25.3
2017-06-26T13:09:22.900Z,25.1
2017-06-26T13:10:45.841Z,24.9
2017-06-26T13:11:47.325Z,24.9
2017-06-26T13:13:09.067Z,24.8
2017-06-26T13:14:10.458Z,24.6
2017-06-26T13:15:32.212Z,24.6
2017-06-26T13:16:33.606Z,24.5
2017-06-26T13:17:55.662Z,24.5
2017-06-26T13:18:57.064Z,24.4
2017-06-26T13:20:18.829Z,24.3
2017-06-26T13:21:20.225Z,24.4
2017-06-26T13:22:42.625Z,24.3
2017-06-26T13:23:44.021Z,24.2
2017-06-26T13:25:06.956Z,24.3
2017-06-26T13:27:25.238Z,24.3
2017-06-26T13:27:49.502Z,24.3
2017-06-26T13:28:50.894Z,24.3
2017-06-26T13:30:14.760Z,24.4
2017-06-26T13:31:16.154Z,24.3
2017-06-26T13:32:38.917Z,24.3
2017-06-26T13:38:45.365Z,24.3
2017-06-26T13:39:46.759Z,24.2
2017-06-26T13:41:08.549Z,24.2
2017-06-26T13:42:09.944Z,24.1
2017-06-26T13:43:31.693Z,24.1
2017-06-26T13:44:33.088Z,23.9
2017-06-26T13:45:57.118Z,24.0
2017-06-26T13:47:12.580Z,24.0
2017-06-26T13:47:39.003Z,24.0
2017-06-26T13:48:40.400Z,24.0
2017-06-26T13:50:02.152Z,24.1
2017-06-26T13:51:03.547Z,24.1
2017-06-26T13:52:28.194Z,24.1
2017-06-26T13:53:29.583Z,24.0
2017-06-26T13:54:30.975Z,23.9
2017-06-26T13:55:32.373Z,23.9
2017-06-26T13:56:33.766Z,23.9
2017-06-26T13:57:35.164Z,23.8
2017-06-26T13:58:36.560Z,23.8
2017-06-26T13:59:37.960Z,23.9
2017-06-26T14:00:40.146Z,23.9
2017-06-26T14:01:40.697Z,23.7
2017-06-26T14:02:42.137Z,23.8
2017-06-26T14:03:43.726Z,23.7
2017-06-26T14:04:45.116Z,23.7
2017-06-26T14:05:46.515Z,23.7
2017-06-26T14:06:48.755Z,23.6
2017-06-26T14:07:50.150Z,23.6
2017-06-26T14:08:51.538Z,23.6
2017-06-26T14:09:53.534Z,23.6
2017-06-26T14:10:54.932Z,23.6
2017-06-26T14:11:56.326Z,23.6
2017-06-26T14:12:57.723Z,23.7
2017-06-26T14:13:59.795Z,23.7
2017-06-26T14:15:01.186Z,23.6
2017-06-26T14:16:02.581Z,23.5
2017-06-26T14:17:03.975Z,23.5
2017-06-26T14:18:05.374Z,23.6
2017-06-26T14:19:06.770Z,23.5
2017-06-26T14:20:08.265Z,23.5
2017-06-26T14:21:09.662Z,23.5
2017-06-26T14:22:11.057Z,23.5
2017-06-26T14:23:12.449Z,23.5
2017-06-26T14:24:13.849Z,23.5
2017-06-26T14:25:15.243Z,23.5
2017-06-26T14:26:17.378Z,23.5
2017-06-26T14:27:18.771Z,23.5
2017-06-26T14:28:20.173Z,23.5
2017-06-26T14:29:21.565Z,23.5
2017-06-26T14:30:22.959Z,23.6
2017-06-26T14:31:24.354Z,23.5
2017-06-26T14:32:25.751Z,23.5
2017-06-26T14:33:27.150Z,23.6
2017-06-26T14:34:30.156Z,23.5
2017-06-26T14:35:30.623Z,23.6
2017-06-26T14:36:32.018Z,23.6
2017-06-26T14:37:33.406Z,23.6
2017-06-26T14:38:34.803Z,23.7
2017-06-26T14:39:36.204Z,23.7
2017-06-26T14:40:37.602Z,23.7
2017-06-26T14:41:39.798Z,23.7
2017-06-26T14:42:41.885Z,23.8
2017-06-26T14:43:43.275Z,23.7
2017-06-26T14:44:44.669Z,23.7
2017-06-26T14:45:46.742Z,23.7
2017-06-26T14:46:44.774Z,23.9
2017-06-26T14:56:36.966Z,23.9
2017-06-26T14:57:38.362Z,23.8
2017-06-26T14:59:00.749Z,23.8
2017-06-26T15:00:02.143Z,23.7
2017-06-26T15:01:23.667Z,23.6
2017-06-26T15:02:25.805Z,23.6
2017-06-26T15:03:47.872Z,23.6
2017-06-26T15:04:49.273Z,23.6
2017-06-26T15:06:11.860Z,23.5
2017-06-26T15:07:12.253Z,23.6
2017-06-26T15:08:33.777Z,23.6
2017-06-26T15:09:35.169Z,23.5
2017-06-26T15:10:58.318Z,23.5
2017-06-26T15:11:59.709Z,23.5
2017-06-26T15:13:21.297Z,23.5
2017-06-26T15:14:22.688Z,23.5
2017-06-26T15:15:45.343Z,23.5
2017-06-26T15:16:46.748Z,23.5
2017-06-26T15:18:08.993Z,23.5
2017-06-26T15:19:11.210Z,23.5
2017-06-26T15:20:32.922Z,23.5
2017-06-26T15:21:34.313Z,23.5
2017-06-26T15:22:56.991Z,23.5
2017-06-26T15:23:58.381Z,23.4
2017-06-26T15:25:21.386Z,23.4
2017-06-26T15:26:23.042Z,23.5
2017-06-26T15:27:45.495Z,23.5
2017-06-26T15:28:47.731Z,23.5
2017-06-26T15:30:09.235Z,23.5
2017-06-26T15:31:10.623Z,23.5
2017-06-26T15:32:32.746Z,23.5
2017-06-26T15:33:34.141Z,23.5
2017-06-26T15:34:55.859Z,23.6
2017-06-26T15:35:58.094Z,23.6
2017-06-26T15:37:19.651Z,23.6
2017-06-26T15:38:21.044Z,23.8
2017-06-26T15:39:43.002Z,23.8
2017-06-26T15:40:44.417Z,23.8
2017-06-26T15:42:05.944Z,23.9
2017-06-26T15:43:07.337Z,24.0
2017-06-26T15:44:30.812Z,24.1
2017-06-26T15:45:32.208Z,24.1
2017-06-26T15:46:54.159Z,24.1
2017-06-26T15:47:55.555Z,24.1
2017-06-26T15:49:17.263Z,24.1
2017-06-26T15:50:19.309Z,24.1
2017-06-26T15:51:41.033Z,24.1
2017-06-26T15:52:42.430Z,24.1
2017-06-26T15:54:04.395Z,24.1
2017-06-26T15:55:05.788Z,24.1
2017-06-26T15:56:27.338Z,24.1
2017-06-26T15:57:28.732Z,24.1
2017-06-26T15:58:50.500Z,24.3
2017-06-26T15:59:52.658Z,24.2
2017-06-26T16:01:15.406Z,24.2
2017-06-26T16:02:16.799Z,24.1
2017-06-26T16:03:38.347Z,24.2
